KLRO

Details ICAO KLRO
Name MT PLEASANT RGNL
Region United States
Timezone America/New_York (UTC-5.0)
Plans Departing 10
Arriving 8
Stats Elevation 12 ft / 4 m (AMSL)
Location 32.897972° -79.782859°
Runways 1
Magnetic Variation 8.053° W
Sunrise 2017-12-17 12:17:10 UTC / 2017-12-17 07:17:10 Local
Sunset 2017-12-17 22:16:17 UTC / 2017-12-17 17:16:17 Local
Advertisement - Login to hide

Runways

ID Width Length Bearing (true) Bearing (mag) Surface Threshold Offset Overrun Length
17 75 ft / 23 m 3,806 ft / 1,160 m 167.39° 175.44° Asphalt 0 ft / 0 m 0 ft / 0 m
35 75 ft / 23 m 3,806 ft / 1,160 m 347.39° 355.44° Asphalt 0 ft / 0 m 0 ft / 0 m

Map

Weather


0- 5 10 15 20 25 30 35+ Temperature / ° C

Clouds and Precipitation
Forecast for 2017-12-17 12:00 UTC. Updated an hour ago

Ground ~20,000 ft ~40,000 ft Winds

METAR

KLRO 170755Z AUTO 00000KT 6SM BR CLR 00/00 A3031 RMK AO2

TAF

Not found

Frequencies

Unicom 122.70 MHz CTAF/UNICOM
Approach 135.80 MHz CHARLESTON APP/DEP
Warning: Do not use this data for real-world aviation or navigation. No guarantee of current accuracy is given.